createdAt,value
2022-09-15T00:00:55.032Z,10.52
2022-09-15T00:03:23.872Z,9.07
2022-09-15T00:05:52.964Z,9.80
2022-09-15T00:08:19.609Z,14.18
2022-09-15T00:10:54.854Z,8.32
2022-09-15T00:13:22.240Z,18.05
2022-09-15T00:15:49.366Z,11.85
2022-09-15T00:18:16.136Z,9.20
2022-09-15T00:20:44.391Z,13.15
2022-09-15T00:23:12.798Z,12.35
2022-09-15T00:25:49.621Z,9.60
2022-09-15T00:28:18.898Z,12.95
2022-09-15T00:30:48.124Z,10.88
2022-09-15T00:33:16.425Z,9.38
2022-09-15T00:36:01.029Z,14.60
2022-09-15T00:38:27.661Z,8.35
2022-09-15T00:40:58.601Z,12.27
2022-09-15T00:43:43.944Z,8.30
2022-09-15T00:46:11.751Z,10.02
2022-09-15T00:48:42.189Z,12.43
2022-09-15T00:51:11.934Z,8.17
2022-09-15T00:53:38.778Z,7.35
2022-09-15T00:56:08.548Z,8.48
2022-09-15T00:58:46.495Z,14.15
2022-09-15T01:01:16.110Z,14.85
2022-09-15T01:03:42.651Z,13.10
2022-09-15T01:06:15.817Z,7.43
2022-09-15T01:08:54.280Z,12.27
2022-09-15T01:11:20.858Z,11.95
2022-09-15T01:13:47.424Z,10.50
2022-09-15T01:16:55.962Z,10.27
2022-09-15T01:19:40.619Z,10.55
2022-09-15T01:22:35.128Z,13.35
2022-09-15T01:25:08.521Z,11.95
2022-09-15T01:27:55.677Z,10.13
2022-09-15T01:30:24.276Z,15.00
2022-09-15T01:33:12.240Z,13.43
2022-09-15T01:35:55.391Z,10.68
2022-09-15T01:39:06.912Z,4.07
2022-09-15T01:42:00.107Z,9.13
2022-09-15T01:44:32.817Z,10.18
2022-09-15T01:47:06.460Z,8.55
2022-09-15T01:50:10.719Z,7.95
2022-09-15T01:52:43.046Z,6.13
2022-09-15T01:55:38.073Z,11.20
2022-09-15T01:58:05.126Z,9.30
2022-09-15T02:00:35.434Z,8.50
2022-09-15T02:03:08.484Z,7.90
2022-09-15T02:05:44.788Z,9.43
2022-09-15T02:08:20.806Z,5.38
2022-09-15T02:10:51.906Z,8.95
2022-09-15T02:13:24.315Z,6.15
2022-09-15T02:15:56.974Z,13.98
2022-09-15T02:18:44.617Z,8.57
2022-09-15T02:21:20.987Z,15.98
2022-09-15T02:23:57.162Z,7.60
2022-09-15T02:26:27.973Z,7.85
2022-09-15T02:28:57.740Z,8.27
2022-09-15T02:31:27.192Z,12.18
2022-09-15T02:33:59.207Z,7.93
2022-09-15T02:36:29.089Z,9.02
2022-09-15T02:39:03.600Z,13.27
2022-09-15T02:41:30.269Z,6.53
2022-09-15T02:43:56.777Z,8.25
2022-09-15T02:46:24.396Z,6.50
2022-09-15T02:48:50.916Z,7.60
2022-09-15T02:51:18.312Z,10.38
2022-09-15T02:53:46.385Z,9.57
2022-09-15T02:56:13.403Z,5.38
2022-09-15T02:58:39.907Z,4.63
2022-09-15T03:01:08.017Z,14.35
2022-09-15T03:03:35.096Z,7.47
2022-09-15T03:06:17.132Z,7.10
2022-09-15T03:08:55.545Z,7.70
2022-09-15T03:11:24.370Z,6.97
2022-09-15T03:14:02.636Z,7.93
2022-09-15T03:16:31.070Z,5.22
2022-09-15T03:19:02.058Z,7.65
2022-09-15T03:21:29.958Z,4.90
2022-09-15T03:23:57.721Z,10.30
2022-09-15T03:26:24.917Z,8.13
2022-09-15T03:28:51.486Z,12.10
2022-09-15T03:31:18.032Z,6.53
2022-09-15T03:33:44.658Z,12.38
2022-09-15T03:36:11.234Z,13.32
2022-09-15T03:38:37.912Z,5.50
2022-09-15T03:41:09.691Z,6.63
2022-09-15T03:43:36.990Z,5.95
2022-09-15T03:46:06.475Z,8.35
2022-09-15T03:48:35.495Z,8.40
2022-09-15T03:51:03.724Z,10.52
2022-09-15T03:53:35.178Z,5.28
2022-09-15T03:56:12.205Z,10.15
2022-09-15T03:58:38.708Z,12.07
2022-09-15T04:01:05.334Z,7.05
2022-09-15T04:03:32.540Z,11.55
2022-09-15T04:05:59.119Z,11.05
2022-09-15T04:08:25.693Z,14.05
2022-09-15T04:10:53.033Z,8.68
2022-09-15T04:13:19.710Z,13.27
2022-09-15T04:15:46.419Z,6.70
2022-09-15T04:18:12.997Z,9.88
2022-09-15T04:20:40.746Z,11.43
2022-09-15T04:23:07.240Z,13.73
2022-09-15T04:25:36.897Z,6.93
2022-09-15T04:28:05.647Z,8.77
2022-09-15T04:30:34.351Z,11.25
2022-09-15T04:33:01.027Z,9.65
2022-09-15T04:35:27.542Z,14.25
2022-09-15T04:37:54.718Z,9.85
2022-09-15T04:40:21.419Z,8.88
2022-09-15T04:42:48.016Z,15.38
2022-09-15T04:45:14.596Z,18.08
2022-09-15T04:47:41.170Z,12.27
2022-09-15T04:50:08.039Z,17.58
2022-09-15T04:52:36.647Z,12.88
2022-09-15T04:55:03.321Z,12.68
2022-09-15T04:57:33.710Z,11.85
2022-09-15T05:00:00.305Z,22.27
2022-09-15T05:02:26.894Z,21.25
2022-09-15T05:04:53.477Z,16.05
2022-09-15T05:07:20.548Z,18.30
2022-09-15T05:09:47.169Z,13.85
2022-09-15T05:12:14.189Z,15.88
2022-09-15T05:14:40.793Z,15.88
2022-09-15T05:17:07.432Z,16.08
2022-09-15T05:19:34.319Z,19.40
2022-09-15T05:22:01.148Z,15.77
2022-09-15T05:24:27.598Z,5.50
2022-09-15T05:26:54.152Z,14.70
2022-09-15T05:29:20.757Z,17.70
2022-09-15T05:31:47.479Z,12.80
2022-09-15T05:34:14.255Z,16.58
2022-09-15T05:36:40.792Z,14.45
2022-09-15T05:39:07.366Z,14.70
2022-09-15T05:41:33.945Z,19.58
2022-09-15T05:44:02.681Z,17.17
2022-09-15T05:46:30.205Z,13.25
2022-09-15T05:48:58.658Z,11.35
2022-09-15T05:51:25.655Z,12.98
2022-09-15T05:53:54.960Z,17.65
2022-09-15T05:56:22.048Z,12.93
2022-09-15T05:58:49.252Z,14.75
2022-09-15T06:01:42.310Z,17.13
2022-09-15T06:04:08.957Z,16.42
2022-09-15T06:06:38.853Z,17.33
2022-09-15T06:09:06.523Z,14.65
2022-09-15T06:11:42.327Z,13.48
2022-09-15T06:14:08.943Z,14.50
2022-09-15T06:16:36.021Z,14.30
2022-09-15T06:19:03.531Z,12.63
2022-09-15T06:21:32.012Z,19.00
2022-09-15T06:24:04.431Z,19.42
2022-09-15T06:26:31.042Z,15.82
2022-09-15T06:28:59.630Z,13.00
2022-09-15T06:31:28.160Z,13.23
2022-09-15T06:33:57.525Z,14.63
2022-09-15T06:36:28.514Z,23.03
2022-09-15T06:38:58.772Z,23.50
2022-09-15T06:41:25.628Z,23.70
2022-09-15T06:43:53.343Z,14.23
2022-09-15T06:46:23.460Z,17.40
2022-09-15T06:48:51.294Z,21.73
2022-09-15T06:51:22.730Z,22.92
2022-09-15T06:53:49.561Z,12.93
2022-09-15T06:56:18.645Z,17.50
2022-09-15T06:58:46.086Z,16.63
2022-09-15T07:01:15.071Z,15.57
2022-09-15T07:03:44.115Z,14.05
2022-09-15T07:06:12.287Z,18.40
2022-09-15T07:08:39.962Z,13.63
2022-09-15T07:11:07.618Z,16.40
2022-09-15T07:13:34.411Z,16.48
2022-09-15T07:16:04.349Z,10.10
2022-09-15T07:18:31.982Z,15.30
2022-09-15T07:21:00.723Z,16.50
2022-09-15T07:23:27.431Z,17.00
2022-09-15T07:26:05.050Z,10.80
2022-09-15T07:28:31.603Z,15.32
2022-09-15T07:30:58.151Z,11.73
2022-09-15T07:33:24.639Z,13.82
2022-09-15T07:35:51.479Z,14.52
2022-09-15T07:38:17.987Z,9.85
2022-09-15T07:40:46.079Z,15.15
2022-09-15T07:43:12.545Z,10.75
2022-09-15T07:45:42.796Z,16.38
2022-09-15T07:48:12.686Z,14.57
2022-09-15T07:50:39.241Z,15.82
2022-09-15T07:53:05.716Z,12.13
2022-09-15T07:55:32.937Z,11.95
2022-09-15T07:58:03.797Z,19.80
2022-09-15T08:00:30.755Z,15.15
2022-09-15T08:02:57.463Z,18.67
2022-09-15T08:05:28.685Z,13.25
2022-09-15T08:10:30.605Z,17.42
2022-09-15T08:13:25.055Z,16.23
2022-09-15T08:15:54.224Z,20.15
2022-09-15T08:18:20.854Z,18.60
2022-09-15T08:20:47.390Z,11.85
2022-09-15T08:23:14.236Z,14.88
2022-09-15T08:25:40.882Z,14.48
2022-09-15T08:28:16.908Z,12.25
2022-09-15T08:30:46.136Z,14.65
2022-09-15T08:33:12.749Z,19.02
2022-09-15T08:35:39.292Z,15.68
2022-09-15T08:38:05.966Z,9.15
2022-09-15T08:40:37.619Z,15.93
2022-09-15T08:43:17.814Z,13.10
2022-09-15T08:45:55.885Z,21.10
2022-09-15T08:48:32.030Z,23.65
2022-09-15T08:51:04.248Z,18.30
2022-09-15T08:53:45.666Z,21.55
2022-09-15T08:58:45.956Z,21.75
2022-09-15T09:01:32.479Z,19.75
2022-09-15T09:04:23.814Z,19.13
2022-09-15T09:07:21.913Z,15.57
2022-09-15T09:09:53.194Z,17.13
2022-09-15T09:12:19.753Z,18.50
2022-09-15T09:15:14.115Z,14.48
2022-09-15T09:18:09.287Z,14.07
2022-09-15T09:21:12.804Z,23.42
2022-09-15T09:24:05.621Z,26.42
2022-09-15T09:26:36.656Z,25.58
2022-09-15T09:29:28.401Z,34.28
2022-09-15T09:32:00.107Z,37.72
2022-09-15T09:34:39.785Z,67.57
2022-09-15T09:37:11.689Z,63.75
2022-09-15T09:39:38.422Z,54.03
2022-09-15T09:42:06.463Z,66.93
2022-09-15T09:44:33.987Z,71.57
2022-09-15T09:47:03.845Z,76.18
2022-09-15T09:49:34.580Z,70.60
2022-09-15T09:52:03.683Z,69.93
2022-09-15T09:54:33.065Z,84.78
2022-09-15T09:57:23.088Z,65.22
2022-09-15T09:59:51.049Z,91.97
2022-09-15T10:02:28.323Z,66.68
2022-09-15T10:05:16.023Z,64.78
2022-09-15T10:07:46.152Z,74.55
2022-09-15T10:10:25.914Z,61.97
2022-09-15T10:13:02.411Z,94.53
2022-09-15T10:15:34.174Z,92.28
2022-09-15T10:18:03.753Z,103.05
2022-09-15T10:20:35.615Z,74.55
2022-09-15T10:23:31.666Z,96.13
2022-09-15T10:26:19.873Z,77.05
2022-09-15T10:29:13.841Z,85.63
2022-09-15T10:31:40.779Z,76.25
2022-09-15T10:34:31.013Z,70.25
2022-09-15T10:37:55.116Z,87.78
2022-09-15T10:40:46.179Z,79.43
2022-09-15T10:43:32.909Z,105.80
2022-09-15T10:46:26.191Z,118.63
2022-09-15T10:49:23.320Z,109.43
2022-09-15T10:51:58.887Z,108.88
2022-09-15T10:54:41.666Z,113.85
2022-09-15T11:00:17.194Z,95.55
2022-09-15T11:03:32.818Z,102.03
2022-09-15T11:06:05.250Z,92.90
2022-09-15T11:08:51.420Z,95.43
2022-09-15T11:11:39.812Z,99.90
2022-09-15T11:14:22.689Z,74.38
2022-09-15T11:16:59.835Z,75.40
2022-09-15T11:19:48.496Z,66.35
2022-09-15T11:22:22.030Z,68.25
2022-09-15T11:24:55.009Z,53.88
2022-09-15T11:27:48.615Z,54.97
2022-09-15T11:30:23.509Z,58.95
2022-09-15T11:33:06.575Z,65.40
2022-09-15T11:35:49.895Z,61.58
2022-09-15T11:38:49.149Z,59.50
2022-09-15T11:41:18.882Z,56.28
2022-09-15T11:44:16.063Z,50.28
2022-09-15T11:46:58.722Z,54.50
2022-09-15T11:49:35.194Z,49.85
2022-09-15T11:52:11.207Z,54.53
2022-09-15T11:54:45.207Z,56.08
2022-09-15T11:57:19.005Z,38.88
2022-09-15T12:00:09.067Z,49.65
2022-09-15T12:02:49.002Z,50.03
2022-09-15T12:05:32.345Z,57.15
2022-09-15T12:08:27.555Z,57.80
2022-09-15T12:10:59.988Z,43.28
2022-09-15T12:13:27.036Z,114.70
2022-09-15T12:15:54.764Z,65.50
2022-09-15T12:18:40.815Z,43.72
2022-09-15T12:21:16.190Z,51.85
2022-09-15T12:23:55.540Z,58.95
2022-09-15T12:26:24.029Z,35.80
2022-09-15T12:28:58.116Z,61.00
2022-09-15T12:31:39.355Z,97.32
2022-09-15T12:34:25.926Z,74.35
2022-09-15T12:36:54.624Z,61.65
2022-09-15T12:39:23.267Z,52.00
2022-09-15T12:41:52.403Z,53.25
2022-09-15T12:44:29.085Z,50.80
2022-09-15T12:46:58.389Z,63.60
2022-09-15T12:49:33.116Z,51.20
2022-09-15T12:52:07.314Z,50.42
2022-09-15T12:54:46.734Z,44.13
2022-09-15T12:57:26.251Z,47.22
2022-09-15T13:00:23.297Z,38.13
2022-09-15T13:03:08.093Z,55.88
2022-09-15T13:05:46.353Z,47.53
2022-09-15T13:08:23.002Z,45.70
2022-09-15T13:11:09.611Z,35.25
2022-09-15T13:13:43.895Z,39.70
2022-09-15T13:16:48.979Z,32.72
2022-09-15T13:19:35.958Z,47.75
2022-09-15T13:22:11.643Z,41.00
2022-09-15T13:25:04.781Z,48.90
2022-09-15T13:27:52.237Z,41.33
2022-09-15T13:30:21.600Z,48.13
2022-09-15T13:32:54.197Z,56.13
2022-09-15T13:36:02.593Z,46.38
2022-09-15T13:38:52.438Z,51.08
2022-09-15T13:41:54.832Z,52.83
2022-09-15T13:44:38.187Z,59.58
2022-09-15T13:47:23.396Z,61.60
2022-09-15T13:50:09.082Z,56.92
2022-09-15T13:52:51.451Z,54.20
2022-09-15T13:55:24.131Z,60.85
2022-09-15T14:00:59.592Z,65.07
2022-09-15T14:03:39.831Z,46.10
2022-09-15T14:06:14.250Z,44.75
2022-09-15T14:08:43.326Z,49.45
2022-09-15T14:11:14.254Z,41.08
2022-09-15T14:13:47.830Z,64.95
2022-09-15T14:16:30.714Z,51.28
2022-09-15T14:18:58.789Z,51.75
2022-09-15T14:21:28.928Z,42.88
2022-09-15T14:24:20.483Z,39.25
2022-09-15T14:29:19.571Z,53.10
2022-09-15T14:31:47.936Z,39.30
2022-09-15T14:34:20.521Z,59.45
2022-09-15T14:37:01.239Z,44.92
2022-09-15T14:39:30.727Z,46.20
2022-09-15T14:41:57.328Z,56.00
2022-09-15T14:47:27.888Z,57.45
2022-09-15T14:50:06.865Z,58.17
2022-09-15T14:52:38.816Z,59.85
2022-09-15T14:55:14.071Z,54.60
2022-09-15T14:57:46.219Z,59.17
2022-09-15T15:00:19.595Z,60.95
2022-09-15T15:03:09.026Z,61.22
2022-09-15T15:05:48.008Z,48.55
2022-09-15T15:08:28.203Z,45.03
2022-09-15T15:10:57.246Z,50.85
2022-09-15T15:13:24.151Z,46.97
2022-09-15T15:15:51.081Z,48.60
2022-09-15T15:18:31.696Z,49.85
2022-09-15T15:21:00.095Z,52.10
2022-09-15T15:23:27.447Z,43.75
2022-09-15T15:25:54.395Z,47.72
2022-09-15T15:28:37.672Z,47.92
2022-09-15T15:34:27.337Z,36.28
2022-09-15T15:37:03.724Z,46.33
2022-09-15T15:39:31.066Z,58.97
2022-09-15T15:42:05.516Z,44.05
2022-09-15T15:44:33.845Z,48.17
2022-09-15T15:47:03.246Z,54.08
2022-09-15T15:49:32.760Z,39.92
2022-09-15T15:52:00.961Z,42.65
2022-09-15T15:54:28.915Z,38.20
2022-09-15T15:56:55.749Z,34.88
2022-09-15T15:59:22.625Z,47.08
2022-09-15T16:01:55.808Z,43.85
2022-09-15T16:04:22.470Z,40.78
2022-09-15T16:06:49.682Z,45.40
2022-09-15T16:09:20.865Z,47.70
2022-09-15T16:11:47.921Z,34.72
2022-09-15T16:14:14.583Z,42.88
2022-09-15T16:16:41.211Z,42.83
2022-09-15T16:19:17.205Z,29.27
2022-09-15T16:21:43.826Z,37.22
2022-09-15T16:24:15.281Z,36.10
2022-09-15T16:26:44.017Z,25.60
2022-09-15T16:29:11.275Z,33.80
2022-09-15T16:31:38.496Z,29.10
2022-09-15T16:34:05.214Z,46.00
2022-09-15T16:36:36.324Z,30.33
2022-09-15T16:39:04.416Z,30.05
2022-09-15T16:41:31.800Z,30.75
2022-09-15T16:44:02.639Z,23.23
2022-09-15T16:46:29.870Z,31.15
2022-09-15T16:48:57.572Z,33.70
2022-09-15T16:51:29.818Z,26.90
2022-09-15T16:54:20.429Z,23.58
2022-09-15T16:56:47.365Z,35.10
2022-09-15T16:59:14.191Z,29.15
2022-09-15T17:01:41.165Z,19.73
2022-09-15T17:04:17.068Z,31.70
2022-09-15T17:06:43.913Z,27.77
2022-09-15T17:09:10.492Z,25.58
2022-09-15T17:11:38.541Z,25.60
2022-09-15T17:14:05.673Z,30.77
2022-09-15T17:16:32.284Z,30.13
2022-09-15T17:18:59.134Z,27.50
2022-09-15T17:21:25.766Z,29.80
2022-09-15T17:23:52.852Z,26.88
2022-09-15T17:26:21.866Z,31.13
2022-09-15T17:28:49.001Z,35.70
2022-09-15T17:31:20.443Z,25.92
2022-09-15T17:33:48.577Z,31.05
2022-09-15T17:36:16.167Z,19.92
2022-09-15T17:38:44.965Z,34.30
2022-09-15T17:41:22.414Z,27.02
2022-09-15T17:43:52.382Z,31.40
2022-09-15T17:46:19.214Z,26.05
2022-09-15T17:48:49.276Z,24.83
2022-09-15T17:51:17.459Z,35.38
2022-09-15T17:53:45.294Z,33.85
2022-09-15T17:56:12.074Z,27.02
2022-09-15T17:58:38.733Z,29.58
2022-09-15T18:01:05.446Z,31.15
2022-09-15T18:03:36.123Z,21.25
2022-09-15T18:06:06.707Z,32.97
2022-09-15T18:08:35.935Z,28.23
2022-09-15T18:11:04.041Z,24.48
2022-09-15T18:13:31.287Z,26.17
2022-09-15T18:16:03.071Z,20.73
2022-09-15T18:18:30.394Z,30.92
2022-09-15T18:20:58.381Z,34.70
2022-09-15T18:23:28.321Z,21.23
2022-09-15T18:25:55.168Z,25.33
2022-09-15T18:28:21.699Z,26.83
2022-09-15T18:30:50.114Z,19.20
2022-09-15T18:33:20.297Z,26.67
2022-09-15T18:35:49.341Z,18.38
2022-09-15T18:38:16.940Z,27.65
2022-09-15T18:40:49.162Z,14.73
2022-09-15T18:43:27.072Z,15.52
2022-09-15T18:46:03.626Z,23.08
2022-09-15T18:48:30.879Z,26.58
2022-09-15T18:50:57.426Z,24.52
2022-09-15T18:53:24.894Z,22.67
2022-09-15T18:55:51.736Z,30.15
2022-09-15T18:58:27.420Z,16.85
2022-09-15T19:01:02.680Z,17.45
2022-09-15T19:03:29.953Z,15.68
2022-09-15T19:06:01.812Z,11.93
2022-09-15T19:08:28.338Z,13.48
2022-09-15T19:10:59.646Z,16.27
2022-09-15T19:15:53.666Z,21.75
2022-09-15T19:18:20.281Z,26.70
2022-09-15T19:20:47.142Z,21.10
2022-09-15T19:23:16.278Z,20.52
2022-09-15T19:25:42.910Z,14.27
2022-09-15T19:28:09.712Z,15.82
2022-09-15T19:30:36.492Z,15.13
2022-09-15T19:33:03.424Z,16.75
2022-09-15T19:35:30.028Z,12.55
2022-09-15T19:37:59.733Z,11.52
2022-09-15T19:40:26.849Z,19.05
2022-09-15T19:42:53.582Z,22.15
2022-09-15T19:45:20.330Z,13.02
2022-09-15T19:47:47.197Z,8.65
2022-09-15T19:50:13.930Z,17.30
2022-09-15T19:52:41.884Z,12.57
2022-09-15T19:55:09.882Z,14.38
2022-09-15T19:57:40.812Z,8.60
2022-09-15T20:00:08.932Z,12.88
2022-09-15T20:02:36.064Z,17.58
2022-09-15T20:07:48.160Z,9.35
2022-09-15T20:10:15.506Z,9.65
2022-09-15T20:12:42.480Z,19.27
2022-09-15T20:15:10.356Z,8.70
2022-09-15T20:17:42.082Z,14.65
2022-09-15T20:20:11.366Z,14.35
2022-09-15T20:22:38.031Z,12.10
2022-09-15T20:25:05.079Z,11.32
2022-09-15T20:27:38.919Z,10.00
2022-09-15T20:30:09.228Z,7.72
2022-09-15T20:32:35.871Z,15.30
2022-09-15T20:35:09.114Z,12.13
2022-09-15T20:37:37.660Z,10.35
2022-09-15T20:40:07.712Z,9.40
2022-09-15T20:42:34.794Z,14.48
2022-09-15T20:45:01.636Z,17.60
2022-09-15T20:47:28.703Z,14.18
2022-09-15T20:49:55.269Z,15.68
2022-09-15T20:52:32.582Z,10.63
2022-09-15T20:55:01.615Z,14.65
2022-09-15T20:57:30.191Z,11.15
2022-09-15T20:59:57.722Z,11.52
2022-09-15T21:02:24.459Z,24.15
2022-09-15T21:04:51.248Z,24.60
2022-09-15T21:07:18.068Z,15.82
2022-09-15T21:09:45.319Z,10.68
2022-09-15T21:12:15.966Z,11.65
2022-09-15T21:14:43.016Z,13.32
2022-09-15T21:17:09.667Z,9.48
2022-09-15T21:19:37.967Z,13.98
2022-09-15T21:22:04.784Z,18.35
2022-09-15T21:24:31.407Z,13.40
2022-09-15T21:27:16.446Z,12.57
2022-09-15T21:29:43.447Z,9.32
2022-09-15T21:32:10.339Z,8.20
2022-09-15T21:34:37.022Z,12.18
2022-09-15T21:37:03.844Z,9.07
2022-09-15T21:39:30.412Z,11.07
2022-09-15T21:41:57.236Z,11.68
2022-09-15T21:44:23.969Z,11.35
2022-09-15T21:46:52.790Z,11.02
2022-09-15T21:49:20.212Z,12.80
2022-09-15T21:51:46.829Z,10.45
2022-09-15T21:54:13.901Z,15.82
2022-09-15T21:56:59.536Z,13.27
2022-09-15T21:59:26.322Z,9.60
2022-09-15T22:01:55.415Z,12.60
2022-09-15T22:04:22.264Z,10.98
2022-09-15T22:06:50.257Z,8.85
2022-09-15T22:09:21.484Z,4.35
2022-09-15T22:11:48.389Z,11.02
2022-09-15T22:14:15.376Z,7.15
2022-09-15T22:16:43.024Z,8.02
2022-09-15T22:19:11.570Z,12.57
2022-09-15T22:21:41.785Z,8.52
2022-09-15T22:24:11.444Z,13.40
2022-09-15T22:26:38.609Z,8.70
2022-09-15T22:29:08.861Z,10.82
2022-09-15T22:31:36.284Z,7.63
2022-09-15T22:34:03.091Z,7.85
2022-09-15T22:36:30.961Z,7.47
2022-09-15T22:39:10.258Z,8.00
2022-09-15T22:41:39.023Z,11.27
2022-09-15T22:44:07.670Z,10.27
2022-09-15T22:46:34.882Z,8.75
2022-09-15T22:49:02.098Z,7.20
2022-09-15T22:51:29.221Z,14.18
2022-09-15T22:53:57.349Z,12.50
2022-09-15T22:56:26.124Z,5.43
2022-09-15T22:58:53.074Z,10.02
2022-09-15T23:01:23.018Z,11.30
2022-09-15T23:03:56.280Z,15.00
2022-09-15T23:06:24.687Z,11.05
2022-09-15T23:08:56.670Z,7.68
2022-09-15T23:11:24.403Z,7.03
2022-09-15T23:13:51.942Z,10.85
2022-09-15T23:16:18.760Z,10.05
2022-09-15T23:18:50.547Z,10.43
2022-09-15T23:21:17.333Z,7.00
2022-09-15T23:23:45.473Z,10.60
2022-09-15T23:26:13.557Z,9.63
2022-09-15T23:28:40.501Z,9.00
2022-09-15T23:31:08.447Z,8.63
2022-09-15T23:33:35.557Z,8.80
2022-09-15T23:36:08.767Z,11.15
2022-09-15T23:38:37.183Z,9.00
2022-09-15T23:41:04.064Z,11.18
2022-09-15T23:43:33.239Z,10.30
2022-09-15T23:46:01.186Z,5.80
2022-09-15T23:48:28.408Z,6.72
2022-09-15T23:50:55.125Z,8.90
2022-09-15T23:53:21.810Z,12.80
2022-09-15T23:55:48.481Z,9.32
2022-09-15T23:58:15.253Z,7.40
